createdAt,value
2022-10-04T00:02:20.771Z,8.40
2022-10-04T00:04:52.656Z,9.38
2022-10-04T00:07:24.599Z,8.20
2022-10-04T00:09:57.447Z,8.93
2022-10-04T00:12:27.758Z,8.32
2022-10-04T00:14:59.638Z,7.83
2022-10-04T00:17:31.442Z,7.97
2022-10-04T00:19:59.906Z,8.45
2022-10-04T00:22:28.993Z,8.02
2022-10-04T00:25:21.278Z,7.65
2022-10-04T00:28:27.800Z,7.90
2022-10-04T00:31:24.615Z,8.45
2022-10-04T00:33:55.803Z,7.63
2022-10-04T00:36:46.147Z,7.78
2022-10-04T00:39:24.212Z,7.70
2022-10-04T00:42:24.797Z,7.18
2022-10-04T00:44:57.326Z,8.13
2022-10-04T00:47:31.460Z,8.27
2022-10-04T00:50:11.710Z,8.60
2022-10-04T00:52:45.193Z,8.87
2022-10-04T00:55:24.963Z,8.20
2022-10-04T00:57:59.377Z,8.18
2022-10-04T01:00:28.033Z,8.00
2022-10-04T01:03:01.818Z,7.80
2022-10-04T01:05:35.241Z,7.45
2022-10-04T01:08:08.863Z,6.80
2022-10-04T01:10:41.756Z,6.95
2022-10-04T01:13:13.970Z,7.20
2022-10-04T01:15:45.899Z,7.15
2022-10-04T01:18:17.291Z,7.18
2022-10-04T01:20:54.876Z,6.68
2022-10-04T01:23:43.429Z,6.70
2022-10-04T01:26:40.256Z,7.28
2022-10-04T01:29:11.701Z,7.60
2022-10-04T01:31:43.289Z,7.10
2022-10-04T01:34:15.199Z,6.72
2022-10-04T01:36:45.997Z,6.57
2022-10-04T01:39:17.179Z,7.28
2022-10-04T01:41:50.999Z,7.32
2022-10-04T01:44:26.506Z,5.77
2022-10-04T01:46:57.380Z,5.63
2022-10-04T01:49:30.145Z,6.10
2022-10-04T01:52:04.277Z,5.82
2022-10-04T01:54:37.397Z,6.30
2022-10-04T01:57:13.518Z,6.40
2022-10-04T01:59:45.315Z,6.70
2022-10-04T02:02:22.603Z,6.35
2022-10-04T02:04:54.832Z,6.30
2022-10-04T02:07:23.947Z,6.18
2022-10-04T02:09:59.596Z,6.25
2022-10-04T02:12:31.265Z,6.07
2022-10-04T02:15:02.265Z,6.10
2022-10-04T02:17:32.737Z,5.95
2022-10-04T02:20:02.852Z,6.15
2022-10-04T02:22:31.839Z,6.30
2022-10-04T02:25:01.695Z,5.80
2022-10-04T02:27:31.205Z,5.93
2022-10-04T02:30:03.970Z,5.33
2022-10-04T02:32:51.037Z,5.77
2022-10-04T02:35:20.518Z,5.47
2022-10-04T02:37:52.870Z,5.28
2022-10-04T02:40:27.503Z,6.03
2022-10-04T02:43:01.071Z,5.65
2022-10-04T02:45:38.882Z,5.95
2022-10-04T02:48:22.691Z,5.97
2022-10-04T02:50:53.879Z,5.88
2022-10-04T02:53:30.758Z,5.32
2022-10-04T02:56:00.302Z,6.10
2022-10-04T02:58:28.720Z,5.97
2022-10-04T03:00:59.844Z,5.63
2022-10-04T03:03:29.738Z,6.15
2022-10-04T03:06:05.679Z,5.80
2022-10-04T03:08:37.622Z,5.72
2022-10-04T03:11:07.085Z,5.93
2022-10-04T03:13:37.097Z,5.95
2022-10-04T03:16:05.666Z,6.35
2022-10-04T03:18:36.565Z,5.93
2022-10-04T03:21:08.778Z,5.80
2022-10-04T03:23:36.921Z,5.70
2022-10-04T03:26:20.673Z,5.60
2022-10-04T03:28:49.187Z,5.70
2022-10-04T03:31:19.830Z,5.28
2022-10-04T03:33:48.320Z,5.10
2022-10-04T03:36:19.382Z,5.00
2022-10-04T03:38:49.135Z,5.40
2022-10-04T03:41:18.381Z,5.00
2022-10-04T03:43:50.482Z,5.10
2022-10-04T03:46:19.943Z,5.32
2022-10-04T03:48:51.395Z,4.93
2022-10-04T03:51:22.547Z,4.90
2022-10-04T03:53:53.451Z,4.88
2022-10-04T03:56:28.182Z,5.00
2022-10-04T03:58:57.032Z,4.90
2022-10-04T04:01:41.628Z,5.13
2022-10-04T04:04:19.935Z,4.68
2022-10-04T04:06:55.952Z,5.03
2022-10-04T04:09:27.477Z,5.27
2022-10-04T04:11:58.756Z,5.23
2022-10-04T04:14:29.023Z,5.25
2022-10-04T04:17:30.429Z,5.70
2022-10-04T04:20:06.123Z,5.25
2022-10-04T04:22:36.209Z,5.35
2022-10-04T04:25:09.066Z,5.70
2022-10-04T04:27:40.474Z,5.68
2022-10-04T04:30:09.551Z,5.05
2022-10-04T04:32:41.282Z,5.50
2022-10-04T04:35:23.115Z,5.90
2022-10-04T04:38:05.254Z,6.28
2022-10-04T04:40:34.010Z,6.33
2022-10-04T04:43:04.432Z,5.80
2022-10-04T04:45:34.355Z,5.70
2022-10-04T05:11:25.963Z,5.70
2022-10-04T05:13:58.418Z,5.55
2022-10-04T05:16:33.103Z,5.32
2022-10-04T05:19:03.936Z,5.35
2022-10-04T05:21:34.691Z,5.73
2022-10-04T05:24:11.158Z,5.95
2022-10-04T05:26:42.335Z,5.78
2022-10-04T05:29:17.129Z,5.95
2022-10-04T05:31:49.115Z,6.23
2022-10-04T05:34:22.745Z,5.68
2022-10-04T05:37:10.502Z,5.93
2022-10-04T05:39:44.410Z,6.00
2022-10-04T05:42:23.110Z,6.30
2022-10-04T05:44:53.557Z,5.90
2022-10-04T05:47:24.361Z,6.15
2022-10-04T05:49:55.378Z,5.68
2022-10-04T05:52:30.388Z,5.43
2022-10-04T05:55:29.826Z,5.90
2022-10-04T05:58:18.361Z,5.72
2022-10-04T06:01:01.224Z,5.93
2022-10-04T06:03:49.099Z,5.88
2022-10-04T06:06:22.496Z,6.38
2022-10-04T06:09:01.628Z,6.20
2022-10-04T06:11:40.522Z,6.28
2022-10-04T06:14:32.638Z,6.53
2022-10-04T06:17:19.188Z,6.43
2022-10-04T06:20:01.225Z,7.22
2022-10-04T06:22:29.206Z,6.90
2022-10-04T06:25:01.742Z,7.53
2022-10-04T06:27:36.761Z,6.90
2022-10-04T06:30:07.989Z,6.97
2022-10-04T06:33:03.977Z,7.63
2022-10-04T06:36:11.528Z,7.53
2022-10-04T06:39:14.740Z,7.22
2022-10-04T06:42:12.001Z,7.00
2022-10-04T06:44:51.627Z,6.78
2022-10-04T06:47:35.107Z,6.90
2022-10-04T06:50:19.341Z,7.10
2022-10-04T06:53:03.139Z,7.47
2022-10-04T06:56:04.577Z,6.22
2022-10-04T06:58:44.323Z,7.72
2022-10-04T07:01:23.192Z,7.85
2022-10-04T07:03:56.024Z,8.23
2022-10-04T07:06:28.636Z,8.65
2022-10-04T07:08:59.673Z,8.18
2022-10-04T07:11:32.453Z,8.95
2022-10-04T07:14:14.214Z,9.02
2022-10-04T07:16:47.407Z,8.32
2022-10-04T07:19:32.365Z,9.57
2022-10-04T07:22:12.163Z,8.85
2022-10-04T07:24:52.464Z,9.80
2022-10-04T07:27:25.175Z,8.82
2022-10-04T07:29:55.978Z,8.98
2022-10-04T07:32:28.355Z,9.38
2022-10-04T07:35:03.642Z,8.65
2022-10-04T07:37:37.770Z,8.45
2022-10-04T07:40:10.572Z,8.30
2022-10-04T07:42:46.571Z,8.60
2022-10-04T07:45:20.786Z,8.35
2022-10-04T07:47:48.754Z,8.15
2022-10-04T07:50:27.213Z,6.97
2022-10-04T07:53:07.132Z,6.88
2022-10-04T07:55:50.902Z,6.88
2022-10-04T07:58:45.544Z,6.75
2022-10-04T08:01:24.816Z,6.73
2022-10-04T08:04:06.793Z,6.38
2022-10-04T08:06:39.800Z,5.93
2022-10-04T08:09:38.838Z,5.60
2022-10-04T08:12:17.768Z,6.20
2022-10-04T08:15:11.102Z,5.90
2022-10-04T08:17:51.689Z,6.88
2022-10-04T08:20:36.310Z,6.05
2022-10-04T08:23:44.808Z,5.55
2022-10-04T08:26:27.444Z,5.25
2022-10-04T08:29:27.625Z,5.10
2022-10-04T08:32:06.109Z,5.00
2022-10-04T08:34:58.738Z,4.70
2022-10-04T08:37:42.404Z,5.07
2022-10-04T08:40:45.535Z,5.15
2022-10-04T08:43:49.255Z,5.93
2022-10-04T08:46:41.449Z,5.07
2022-10-04T08:49:44.767Z,5.47
2022-10-04T08:52:52.114Z,5.00
2022-10-04T08:55:50.971Z,5.07
2022-10-04T08:58:45.320Z,4.82
2022-10-04T09:01:39.637Z,4.93
2022-10-04T09:04:53.498Z,5.28
2022-10-04T09:08:12.125Z,5.93
2022-10-04T09:10:57.342Z,5.20
2022-10-04T09:13:37.410Z,6.20
2022-10-04T09:16:16.505Z,5.80
2022-10-04T09:18:52.526Z,4.60
2022-10-04T09:21:28.746Z,5.18
2022-10-04T09:24:21.946Z,4.47
2022-10-04T09:26:57.140Z,4.57
2022-10-04T09:29:53.586Z,4.47
2022-10-04T09:32:41.855Z,5.32
2022-10-04T09:35:38.618Z,4.73
2022-10-04T09:38:25.173Z,4.93
2022-10-04T09:41:32.381Z,4.97
2022-10-04T09:44:35.158Z,4.65
2022-10-04T09:47:24.201Z,4.10
2022-10-04T09:50:30.155Z,4.47
2022-10-04T09:53:08.295Z,5.07
2022-10-04T09:55:58.570Z,4.97
2022-10-04T09:59:03.814Z,4.53
2022-10-04T10:01:40.547Z,5.03
2022-10-04T10:04:26.963Z,3.97
2022-10-04T10:07:23.471Z,4.80
2022-10-04T10:10:15.794Z,4.10
2022-10-04T10:13:32.638Z,4.38
2022-10-04T10:16:07.377Z,3.67
2022-10-04T10:18:50.270Z,3.90
2022-10-04T10:21:35.863Z,4.25
2022-10-04T10:24:33.134Z,3.90
2022-10-04T10:27:26.462Z,3.92
2022-10-04T10:30:24.757Z,4.18
2022-10-04T10:33:29.856Z,4.00
2022-10-04T10:36:17.144Z,3.92
2022-10-04T10:38:58.071Z,3.65
2022-10-04T10:41:43.067Z,3.78
2022-10-04T10:44:26.637Z,3.90
2022-10-04T10:47:06.722Z,3.97
2022-10-04T10:49:56.893Z,3.63
2022-10-04T10:53:01.097Z,3.63
2022-10-04T10:56:01.799Z,3.95
2022-10-04T10:59:02.342Z,3.90
2022-10-04T11:01:54.347Z,4.10
2022-10-04T11:04:45.355Z,3.55
2022-10-04T11:07:43.227Z,3.88
2022-10-04T11:10:31.118Z,4.32
2022-10-04T11:13:21.286Z,3.70
2022-10-04T11:16:21.373Z,3.85
2022-10-04T11:19:23.405Z,3.85
2022-10-04T11:22:45.285Z,3.67
2022-10-04T11:25:41.525Z,3.67
2022-10-04T11:28:16.925Z,3.67
2022-10-04T11:31:18.859Z,3.50
2022-10-04T11:34:16.540Z,3.80
2022-10-04T11:37:01.709Z,3.88
2022-10-04T11:39:49.858Z,3.70
2022-10-04T11:42:31.416Z,3.83
2022-10-04T11:45:20.277Z,3.80
2022-10-04T11:48:02.336Z,3.78
2022-10-04T11:50:39.851Z,3.92
2022-10-04T11:53:52.834Z,3.80
2022-10-04T11:56:44.097Z,3.63
2022-10-04T11:59:25.028Z,3.55
2022-10-04T12:02:32.615Z,3.10
2022-10-04T12:05:20.737Z,3.58
2022-10-04T12:08:01.306Z,3.78
2022-10-04T12:10:30.907Z,3.50
2022-10-04T12:13:34.578Z,3.80
2022-10-04T12:16:24.062Z,3.55
2022-10-04T12:19:40.454Z,3.40
2022-10-04T12:22:32.626Z,3.30
2022-10-04T12:25:33.208Z,3.60
2022-10-04T12:28:34.660Z,3.05
2022-10-04T12:31:23.754Z,3.53
2022-10-04T12:34:00.834Z,3.20
2022-10-04T12:36:51.442Z,3.20
2022-10-04T12:39:34.877Z,3.35
2022-10-04T12:42:24.227Z,3.40
2022-10-04T12:45:06.191Z,3.40
2022-10-04T12:48:03.309Z,3.30
2022-10-04T12:50:44.650Z,3.10
2022-10-04T12:53:21.599Z,3.40
2022-10-04T12:56:02.310Z,4.55
2022-10-04T12:58:44.189Z,3.42
2022-10-04T13:01:22.821Z,2.70
2022-10-04T13:04:12.587Z,3.22
2022-10-04T13:06:52.374Z,2.92
2022-10-04T13:09:31.214Z,2.80
2022-10-04T13:12:12.558Z,3.10
2022-10-04T13:15:07.142Z,2.90
2022-10-04T13:17:44.995Z,2.63
2022-10-04T13:20:41.678Z,3.42
2022-10-04T13:23:17.979Z,3.00
2022-10-04T13:26:04.495Z,3.22
2022-10-04T13:28:41.105Z,3.00
2022-10-04T13:31:15.596Z,3.05
2022-10-04T13:33:50.194Z,3.40
2022-10-04T13:36:26.328Z,3.17
2022-10-04T13:39:14.711Z,3.50
2022-10-04T13:42:03.232Z,5.28
2022-10-04T13:44:43.925Z,3.45
2022-10-04T13:47:40.157Z,3.10
2022-10-04T13:50:37.770Z,3.30
2022-10-04T13:53:35.979Z,3.40
2022-10-04T13:56:29.624Z,3.50
2022-10-04T13:59:04.675Z,3.53
2022-10-04T14:02:01.279Z,3.40
2022-10-04T14:04:54.478Z,3.47
2022-10-04T14:07:53.769Z,3.47
2022-10-04T14:10:42.781Z,2.90
2022-10-04T14:13:45.349Z,3.00
2022-10-04T14:16:33.995Z,3.00
2022-10-04T14:19:33.577Z,3.45
2022-10-04T14:22:36.213Z,3.05
2022-10-04T14:25:45.923Z,3.72
2022-10-04T14:28:53.042Z,3.53
2022-10-04T14:31:37.375Z,3.35
2022-10-04T14:34:35.063Z,2.53
2022-10-04T14:37:37.306Z,2.65
2022-10-04T14:40:29.249Z,2.85
2022-10-04T14:43:43.804Z,2.95
2022-10-04T14:46:22.528Z,2.38
2022-10-04T14:49:11.072Z,3.03
2022-10-04T14:52:14.352Z,2.95
2022-10-04T14:54:52.333Z,2.67
2022-10-04T14:57:27.188Z,2.65
2022-10-04T15:00:10.175Z,3.03
2022-10-04T15:03:14.395Z,2.47
2022-10-04T15:05:59.539Z,2.70
2022-10-04T15:08:59.910Z,3.10
2022-10-04T15:11:41.415Z,2.80
2022-10-04T15:14:28.182Z,3.72
2022-10-04T15:17:00.219Z,2.90
2022-10-04T15:19:31.460Z,4.20
2022-10-04T15:22:08.095Z,4.40
2022-10-04T15:24:48.843Z,2.45
2022-10-04T15:27:50.239Z,2.40
2022-10-04T15:30:35.547Z,1.98
2022-10-04T15:33:26.821Z,1.95
2022-10-04T15:36:18.051Z,2.70
2022-10-04T15:38:50.630Z,2.20
2022-10-04T15:41:27.292Z,2.30
2022-10-04T15:44:28.920Z,2.40
2022-10-04T15:47:09.299Z,2.40
2022-10-04T15:49:55.389Z,2.35
2022-10-04T15:53:13.907Z,2.40
2022-10-04T15:56:12.738Z,2.30
2022-10-04T15:58:54.321Z,2.50
2022-10-04T16:01:38.968Z,3.10
2022-10-04T16:04:20.675Z,3.00
2022-10-04T16:06:56.486Z,3.00
2022-10-04T16:09:34.747Z,2.85
2022-10-04T16:12:22.800Z,2.75
2022-10-04T16:15:14.321Z,2.90
2022-10-04T16:18:05.187Z,2.83
2022-10-04T16:20:53.473Z,2.80
2022-10-04T16:23:34.734Z,2.90
2022-10-04T16:26:05.293Z,3.00
2022-10-04T16:28:46.946Z,3.20
2022-10-04T16:31:38.263Z,3.00
2022-10-04T16:34:34.228Z,3.40
2022-10-04T16:37:14.001Z,3.25
2022-10-04T16:40:06.688Z,4.63
2022-10-04T16:42:46.872Z,5.20
2022-10-04T16:45:35.872Z,5.05
2022-10-04T16:48:13.023Z,5.55
2022-10-04T16:51:13.543Z,4.80
2022-10-04T16:53:49.038Z,4.00
2022-10-04T16:56:20.738Z,3.50
2022-10-04T16:58:58.740Z,3.72
2022-10-04T17:01:55.862Z,3.72
2022-10-04T17:04:55.488Z,3.33
2022-10-04T17:07:33.697Z,3.40
2022-10-04T17:10:20.000Z,3.72
2022-10-04T17:12:56.338Z,4.00
2022-10-04T17:15:45.513Z,3.90
2022-10-04T17:18:19.675Z,3.90
2022-10-04T17:20:56.684Z,3.80
2022-10-04T17:23:43.815Z,4.20
2022-10-04T17:26:25.475Z,4.93
2022-10-04T17:28:59.382Z,4.38
2022-10-04T17:31:33.952Z,4.93
2022-10-04T17:34:13.807Z,4.68
2022-10-04T17:36:44.355Z,5.05
2022-10-04T17:39:38.967Z,4.60
2022-10-04T17:42:21.336Z,5.20
2022-10-04T17:45:07.712Z,5.40
2022-10-04T17:47:52.765Z,5.10
2022-10-04T17:50:44.386Z,5.90
2022-10-04T17:53:37.730Z,6.00
2022-10-04T17:56:07.994Z,5.45
2022-10-04T17:58:45.140Z,6.03
2022-10-04T18:01:19.460Z,5.35
2022-10-04T18:03:53.527Z,5.65
2022-10-04T18:06:33.265Z,6.13
2022-10-04T18:09:05.708Z,5.80
2022-10-04T18:11:43.609Z,5.85
2022-10-04T18:14:21.594Z,5.90
2022-10-04T18:16:55.009Z,6.28
2022-10-04T18:19:38.513Z,6.30
2022-10-04T18:22:14.818Z,6.78
2022-10-04T18:24:44.215Z,6.47
2022-10-04T18:27:21.472Z,6.53
2022-10-04T18:30:03.121Z,6.32
2022-10-04T18:32:37.884Z,6.80
2022-10-04T18:35:22.650Z,7.38
2022-10-04T18:37:51.078Z,7.17
2022-10-04T18:40:20.655Z,6.82
2022-10-04T18:42:53.928Z,6.75
2022-10-04T18:45:28.147Z,7.43
2022-10-04T18:47:59.776Z,7.88
2022-10-04T18:50:36.222Z,7.93
2022-10-04T18:53:40.893Z,7.82
2022-10-04T18:56:10.150Z,8.13
2022-10-04T18:59:22.617Z,7.95
2022-10-04T19:02:02.745Z,8.07
2022-10-04T19:04:54.782Z,8.40
2022-10-04T19:07:30.804Z,8.25
2022-10-04T19:10:18.343Z,7.53
2022-10-04T19:12:57.050Z,7.95
2022-10-04T19:15:42.502Z,7.43
2022-10-04T19:18:26.574Z,7.32
2022-10-04T19:21:01.736Z,7.87
2022-10-04T19:23:36.315Z,7.35
2022-10-04T19:29:11.297Z,7.40
2022-10-04T19:31:47.410Z,7.57
2022-10-04T19:34:20.856Z,8.07
2022-10-04T19:36:57.738Z,7.57
2022-10-04T19:39:36.173Z,7.97
2022-10-04T19:42:06.715Z,8.18
2022-10-04T19:44:53.827Z,7.60
2022-10-04T19:47:39.788Z,7.28
2022-10-04T19:50:18.491Z,7.53
2022-10-04T19:52:54.190Z,7.30
2022-10-04T19:55:27.503Z,8.20
2022-10-04T19:58:02.631Z,7.80
2022-10-04T20:00:30.383Z,7.63
2022-10-04T20:02:58.194Z,7.72
2022-10-04T20:05:26.494Z,8.00
2022-10-04T20:08:01.439Z,8.15
2022-10-04T20:10:35.593Z,8.05
2022-10-04T20:13:23.260Z,7.47
2022-10-04T20:15:56.145Z,8.20
2022-10-04T20:19:05.606Z,7.85
2022-10-04T20:21:33.938Z,7.60
2022-10-04T20:24:03.135Z,7.90
2022-10-04T20:27:04.426Z,8.15
2022-10-04T20:30:01.660Z,7.57
2022-10-04T20:32:55.151Z,8.35
2022-10-04T20:36:14.002Z,7.70
2022-10-04T20:39:02.715Z,7.77
2022-10-04T20:42:22.397Z,8.10
2022-10-04T20:44:57.157Z,7.72
2022-10-04T20:47:37.903Z,7.32
2022-10-04T20:50:14.462Z,7.60
2022-10-04T20:52:46.184Z,8.20
2022-10-04T20:55:20.967Z,7.65
2022-10-04T20:57:49.066Z,7.88
2022-10-04T21:00:25.556Z,7.78
2022-10-04T21:03:15.079Z,7.82
2022-10-04T21:05:42.857Z,7.85
2022-10-04T21:08:23.410Z,8.07
2022-10-04T21:11:09.719Z,7.57
2022-10-04T21:13:54.702Z,7.93
2022-10-04T21:16:46.154Z,7.20
2022-10-04T21:19:47.761Z,7.05
2022-10-04T21:22:36.029Z,7.20
2022-10-04T21:25:06.837Z,7.72
2022-10-04T21:27:36.471Z,8.40
2022-10-04T21:30:07.089Z,8.50
2022-10-04T21:32:37.549Z,7.93
2022-10-04T21:35:07.119Z,8.13
2022-10-04T21:37:35.690Z,7.43
2022-10-04T21:40:03.812Z,8.00
2022-10-04T21:42:31.548Z,8.20
2022-10-04T21:44:59.304Z,7.57
2022-10-04T21:47:27.059Z,7.70
2022-10-04T21:49:56.179Z,7.75
2022-10-04T21:52:23.970Z,8.10
2022-10-04T21:54:51.955Z,8.05
2022-10-04T21:57:19.690Z,7.10
2022-10-04T21:59:47.863Z,8.27
2022-10-04T22:02:15.656Z,7.40
2022-10-04T22:04:43.453Z,7.90
2022-10-04T22:07:12.523Z,7.03
2022-10-04T22:09:40.935Z,7.60
2022-10-04T22:12:08.649Z,8.45
2022-10-04T22:14:36.374Z,7.40
2022-10-04T22:17:04.200Z,6.82
2022-10-04T22:19:32.047Z,7.25
2022-10-04T22:21:59.788Z,6.78
2022-10-04T22:24:28.969Z,7.07
2022-10-04T22:26:58.179Z,7.10
2022-10-04T22:29:27.747Z,7.53
2022-10-04T22:31:56.162Z,7.50
2022-10-04T22:34:23.980Z,6.65
2022-10-04T22:36:52.936Z,7.25
2022-10-04T22:39:21.926Z,7.00
2022-10-04T22:41:57.007Z,7.07
2022-10-04T22:44:28.752Z,6.70
2022-10-04T22:46:58.702Z,6.30
2022-10-04T22:49:28.380Z,7.03
2022-10-04T22:51:58.588Z,6.50
2022-10-04T22:54:29.155Z,6.60
2022-10-04T22:56:59.383Z,7.30
2022-10-04T22:59:34.250Z,6.28
2022-10-04T23:02:08.483Z,6.20
2022-10-04T23:04:36.388Z,6.47
2022-10-04T23:07:04.195Z,6.53
2022-10-04T23:09:31.922Z,6.90
2022-10-04T23:12:01.049Z,6.32
2022-10-04T23:14:28.802Z,7.00
2022-10-04T23:16:56.553Z,6.93
2022-10-04T23:19:24.588Z,7.05
2022-10-04T23:21:52.363Z,6.63
2022-10-04T23:24:22.438Z,6.93
2022-10-04T23:26:54.916Z,6.70
2022-10-04T23:29:25.706Z,6.82
2022-10-04T23:31:53.753Z,6.63
2022-10-04T23:34:28.607Z,6.95
2022-10-04T23:36:57.465Z,6.10
2022-10-04T23:39:27.459Z,6.50
2022-10-04T23:41:56.746Z,6.60
2022-10-04T23:44:30.787Z,6.40
2022-10-04T23:46:58.630Z,6.43
2022-10-04T23:49:26.557Z,6.85
2022-10-04T23:52:00.371Z,6.35
2022-10-04T23:54:28.199Z,6.63
2022-10-04T23:56:55.957Z,6.43
2022-10-04T23:59:27.163Z,6.70
